sensor_id;sensor_type;location;lat;lon;timestamp;temperature;humidity
18712;DHT22;9485;49.386;8.674;2023-12-14T00:02:29;12.40;91.80
18712;DHT22;9485;49.386;8.674;2023-12-14T00:07:51;12.40;91.80
18712;DHT22;9485;49.386;8.674;2023-12-14T00:13:12;12.40;91.90
18712;DHT22;9485;49.386;8.674;2023-12-14T00:18:32;12.50;91.90
18712;DHT22;9485;49.386;8.674;2023-12-14T00:23:54;12.40;91.80
18712;DHT22;9485;49.386;8.674;2023-12-14T00:29:15;12.40;91.80
18712;DHT22;9485;49.386;8.674;2023-12-14T00:34:36;12.40;91.80
18712;DHT22;9485;49.386;8.674;2023-12-14T00:39:57;12.40;91.80
18712;DHT22;9485;49.386;8.674;2023-12-14T00:45:18;12.40;91.70
18712;DHT22;9485;49.386;8.674;2023-12-14T00:50:39;12.40;91.70
18712;DHT22;9485;49.386;8.674;2023-12-14T00:56:00;12.40;91.70
18712;DHT22;9485;49.386;8.674;2023-12-14T01:01:21;12.40;91.80
18712;DHT22;9485;49.386;8.674;2023-12-14T01:06:42;12.40;91.80
18712;DHT22;9485;49.386;8.674;2023-12-14T01:12:04;12.40;91.80
18712;DHT22;9485;49.386;8.674;2023-12-14T01:17:25;12.40;91.80
18712;DHT22;9485;49.386;8.674;2023-12-14T01:22:46;12.40;91.80
18712;DHT22;9485;49.386;8.674;2023-12-14T01:28:08;12.40;91.80
18712;DHT22;9485;49.386;8.674;2023-12-14T01:33:29;12.40;91.70
18712;DHT22;9485;49.386;8.674;2023-12-14T01:38:49;12.40;91.70
18712;DHT22;9485;49.386;8.674;2023-12-14T01:44:12;12.40;91.70
18712;DHT22;9485;49.386;8.674;2023-12-14T01:49:32;12.40;91.60
18712;DHT22;9485;49.386;8.674;2023-12-14T01:54:53;12.40;91.70
18712;DHT22;9485;49.386;8.674;2023-12-14T02:00:22;12.40;91.70
18712;DHT22;9485;49.386;8.674;2023-12-14T02:05:50;12.40;91.70
18712;DHT22;9485;49.386;8.674;2023-12-14T02:11:11;12.40;91.80
18712;DHT22;9485;49.386;8.674;2023-12-14T02:16:33;12.40;91.70
18712;DHT22;9485;49.386;8.674;2023-12-14T02:21:57;12.40;91.70
18712;DHT22;9485;49.386;8.674;2023-12-14T02:27:19;12.40;91.60
18712;DHT22;9485;49.386;8.674;2023-12-14T02:32:40;12.30;91.60
18712;DHT22;9485;49.386;8.674;2023-12-14T02:38:01;12.30;91.60
18712;DHT22;9485;49.386;8.674;2023-12-14T02:43:23;12.30;91.60
18712;DHT22;9485;49.386;8.674;2023-12-14T02:48:43;12.30;91.70
18712;DHT22;9485;49.386;8.674;2023-12-14T02:54:04;12.30;91.70
18712;DHT22;9485;49.386;8.674;2023-12-14T02:59:26;12.30;91.70
18712;DHT22;9485;49.386;8.674;2023-12-14T03:04:46;12.30;91.70
18712;DHT22;9485;49.386;8.674;2023-12-14T03:10:08;12.30;91.70
18712;DHT22;9485;49.386;8.674;2023-12-14T03:15:30;12.30;91.70
18712;DHT22;9485;49.386;8.674;2023-12-14T03:20:51;12.40;91.70
18712;DHT22;9485;49.386;8.674;2023-12-14T03:26:11;12.40;91.70
18712;DHT22;9485;49.386;8.674;2023-12-14T03:31:33;12.40;91.70
18712;DHT22;9485;49.386;8.674;2023-12-14T03:36:54;12.40;91.70
18712;DHT22;9485;49.386;8.674;2023-12-14T03:42:14;12.50;91.70
18712;DHT22;9485;49.386;8.674;2023-12-14T03:47:36;12.40;91.70
18712;DHT22;9485;49.386;8.674;2023-12-14T03:52:57;12.50;91.70
18712;DHT22;9485;49.386;8.674;2023-12-14T03:58:17;12.50;91.70
18712;DHT22;9485;49.386;8.674;2023-12-14T04:03:39;12.50;91.70
18712;DHT22;9485;49.386;8.674;2023-12-14T04:09:00;12.50;91.70
18712;DHT22;9485;49.386;8.674;2023-12-14T04:14:21;12.50;91.70
18712;DHT22;9485;49.386;8.674;2023-12-14T04:19:43;12.50;91.60
18712;DHT22;9485;49.386;8.674;2023-12-14T04:25:04;12.50;91.60
18712;DHT22;9485;49.386;8.674;2023-12-14T04:30:25;12.50;91.60
18712;DHT22;9485;49.386;8.674;2023-12-14T04:35:47;12.50;91.50
18712;DHT22;9485;49.386;8.674;2023-12-14T04:41:08;12.40;91.50
18712;DHT22;9485;49.386;8.674;2023-12-14T04:46:28;12.40;91.40
18712;DHT22;9485;49.386;8.674;2023-12-14T04:51:51;12.40;91.30
18712;DHT22;9485;49.386;8.674;2023-12-14T04:57:11;12.40;91.30
18712;DHT22;9485;49.386;8.674;2023-12-14T05:02:32;12.30;91.30
18712;DHT22;9485;49.386;8.674;2023-12-14T05:07:55;12.30;91.30
18712;DHT22;9485;49.386;8.674;2023-12-14T05:13:15;12.20;91.20
18712;DHT22;9485;49.386;8.674;2023-12-14T05:18:36;12.20;91.30
18712;DHT22;9485;49.386;8.674;2023-12-14T05:23:57;12.20;91.40
18712;DHT22;9485;49.386;8.674;2023-12-14T05:29:18;12.20;91.30
18712;DHT22;9485;49.386;8.674;2023-12-14T05:34:40;12.10;91.30
18712;DHT22;9485;49.386;8.674;2023-12-14T05:40:02;12.10;91.40
18712;DHT22;9485;49.386;8.674;2023-12-14T05:45:24;12.00;91.40
18712;DHT22;9485;49.386;8.674;2023-12-14T05:50:44;12.00;91.60
18712;DHT22;9485;49.386;8.674;2023-12-14T05:56:08;12.00;91.60
18712;DHT22;9485;49.386;8.674;2023-12-14T06:01:29;12.00;91.60
18712;DHT22;9485;49.386;8.674;2023-12-14T06:06:49;12.00;91.70
18712;DHT22;9485;49.386;8.674;2023-12-14T06:12:11;12.10;91.70
18712;DHT22;9485;49.386;8.674;2023-12-14T06:17:33;12.00;91.60
18712;DHT22;9485;49.386;8.674;2023-12-14T06:22:56;12.00;91.60
18712;DHT22;9485;49.386;8.674;2023-12-14T06:28:18;12.00;91.50
18712;DHT22;9485;49.386;8.674;2023-12-14T06:33:39;12.00;91.30
18712;DHT22;9485;49.386;8.674;2023-12-14T06:39:00;11.90;91.20
18712;DHT22;9485;49.386;8.674;2023-12-14T06:44:23;11.80;91.20
18712;DHT22;9485;49.386;8.674;2023-12-14T06:49:45;11.80;91.30
18712;DHT22;9485;49.386;8.674;2023-12-14T06:55:06;11.80;91.30
18712;DHT22;9485;49.386;8.674;2023-12-14T07:00:30;11.80;91.60
18712;DHT22;9485;49.386;8.674;2023-12-14T07:05:50;11.70;91.40
18712;DHT22;9485;49.386;8.674;2023-12-14T07:11:11;11.70;91.40
18712;DHT22;9485;49.386;8.674;2023-12-14T07:16:33;11.70;91.40
18712;DHT22;9485;49.386;8.674;2023-12-14T07:21:54;11.70;91.30
18712;DHT22;9485;49.386;8.674;2023-12-14T07:27:14;11.70;91.30
18712;DHT22;9485;49.386;8.674;2023-12-14T07:32:36;11.60;91.30
18712;DHT22;9485;49.386;8.674;2023-12-14T07:37:57;11.60;91.40
18712;DHT22;9485;49.386;8.674;2023-12-14T07:43:17;11.60;91.50
18712;DHT22;9485;49.386;8.674;2023-12-14T07:48:39;11.70;91.60
18712;DHT22;9485;49.386;8.674;2023-12-14T07:53:59;11.70;91.60
18712;DHT22;9485;49.386;8.674;2023-12-14T07:59:22;11.70;91.60
18712;DHT22;9485;49.386;8.674;2023-12-14T08:04:44;11.70;91.80
18712;DHT22;9485;49.386;8.674;2023-12-14T08:10:06;11.80;91.90
18712;DHT22;9485;49.386;8.674;2023-12-14T08:15:27;11.80;91.90
18712;DHT22;9485;49.386;8.674;2023-12-14T08:20:50;11.90;92.00
18712;DHT22;9485;49.386;8.674;2023-12-14T08:26:14;12.00;92.10
18712;DHT22;9485;49.386;8.674;2023-12-14T08:31:35;12.10;92.20
18712;DHT22;9485;49.386;8.674;2023-12-14T08:36:57;12.20;92.20
18712;DHT22;9485;49.386;8.674;2023-12-14T08:42:18;12.30;92.20
18712;DHT22;9485;49.386;8.674;2023-12-14T08:47:39;12.30;92.20
18712;DHT22;9485;49.386;8.674;2023-12-14T08:53:01;12.40;92.30
18712;DHT22;9485;49.386;8.674;2023-12-14T08:58:24;12.50;92.30
18712;DHT22;9485;49.386;8.674;2023-12-14T09:03:44;12.60;92.20
18712;DHT22;9485;49.386;8.674;2023-12-14T09:09:06;12.60;92.20
18712;DHT22;9485;49.386;8.674;2023-12-14T09:14:27;12.60;92.10
18712;DHT22;9485;49.386;8.674;2023-12-14T09:19:48;12.70;92.10
18712;DHT22;9485;49.386;8.674;2023-12-14T09:25:10;12.70;92.10
18712;DHT22;9485;49.386;8.674;2023-12-14T09:30:31;12.80;92.10
18712;DHT22;9485;49.386;8.674;2023-12-14T09:35:54;12.80;92.60
18712;DHT22;9485;49.386;8.674;2023-12-14T09:41:16;12.90;92.10
18712;DHT22;9485;49.386;8.674;2023-12-14T09:46:38;12.90;92.10
18712;DHT22;9485;49.386;8.674;2023-12-14T09:52:01;13.00;92.10
18712;DHT22;9485;49.386;8.674;2023-12-14T09:57:23;13.00;92.10
18712;DHT22;9485;49.386;8.674;2023-12-14T10:02:45;13.10;92.00
18712;DHT22;9485;49.386;8.674;2023-12-14T10:08:05;13.10;92.00
18712;DHT22;9485;49.386;8.674;2023-12-14T10:13:42;13.20;92.00
18712;DHT22;9485;49.386;8.674;2023-12-14T10:19:04;13.40;91.80
18712;DHT22;9485;49.386;8.674;2023-12-14T10:24:24;13.20;91.90
18712;DHT22;9485;49.386;8.674;2023-12-14T10:29:46;13.30;92.00
18712;DHT22;9485;49.386;8.674;2023-12-14T10:35:08;13.30;91.90
18712;DHT22;9485;49.386;8.674;2023-12-14T10:40:29;13.30;91.80
18712;DHT22;9485;49.386;8.674;2023-12-14T10:45:52;13.30;91.70
18712;DHT22;9485;49.386;8.674;2023-12-14T10:51:15;13.30;91.70
18712;DHT22;9485;49.386;8.674;2023-12-14T10:56:37;13.30;91.90
18712;DHT22;9485;49.386;8.674;2023-12-14T11:02:07;13.30;92.10
18712;DHT22;9485;49.386;8.674;2023-12-14T11:07:48;13.40;91.90
18712;DHT22;9485;49.386;8.674;2023-12-14T11:13:11;13.40;91.80
18712;DHT22;9485;49.386;8.674;2023-12-14T11:18:34;13.40;91.90
18712;DHT22;9485;49.386;8.674;2023-12-14T11:23:55;13.40;91.80
18712;DHT22;9485;49.386;8.674;2023-12-14T11:29:17;13.40;91.90
18712;DHT22;9485;49.386;8.674;2023-12-14T11:34:41;13.40;92.10
18712;DHT22;9485;49.386;8.674;2023-12-14T11:40:07;13.50;92.30
18712;DHT22;9485;49.386;8.674;2023-12-14T11:45:29;13.60;92.50
18712;DHT22;9485;49.386;8.674;2023-12-14T11:50:51;13.80;92.50
18712;DHT22;9485;49.386;8.674;2023-12-14T11:56:12;13.80;92.20
18712;DHT22;9485;49.386;8.674;2023-12-14T12:01:35;13.90;92.00
18712;DHT22;9485;49.386;8.674;2023-12-14T12:07:02;13.90;91.90
18712;DHT22;9485;49.386;8.674;2023-12-14T12:12:24;13.90;91.70
18712;DHT22;9485;49.386;8.674;2023-12-14T12:17:44;13.90;91.70
18712;DHT22;9485;49.386;8.674;2023-12-14T12:23:06;13.80;91.50
18712;DHT22;9485;49.386;8.674;2023-12-14T12:28:27;13.80;91.40
18712;DHT22;9485;49.386;8.674;2023-12-14T12:33:50;13.70;91.30
18712;DHT22;9485;49.386;8.674;2023-12-14T12:39:12;13.70;91.40
18712;DHT22;9485;49.386;8.674;2023-12-14T12:44:32;13.60;91.30
18712;DHT22;9485;49.386;8.674;2023-12-14T12:49:54;13.60;91.40
18712;DHT22;9485;49.386;8.674;2023-12-14T12:55:15;13.60;91.30
18712;DHT22;9485;49.386;8.674;2023-12-14T13:00:36;13.50;91.30
18712;DHT22;9485;49.386;8.674;2023-12-14T13:05:56;13.50;91.20
18712;DHT22;9485;49.386;8.674;2023-12-14T13:11:18;13.50;91.30
18712;DHT22;9485;49.386;8.674;2023-12-14T13:16:40;13.50;91.30
18712;DHT22;9485;49.386;8.674;2023-12-14T13:22:02;13.40;91.20
18712;DHT22;9485;49.386;8.674;2023-12-14T13:27:25;13.40;91.20
18712;DHT22;9485;49.386;8.674;2023-12-14T13:32:46;13.40;91.50
18712;DHT22;9485;49.386;8.674;2023-12-14T13:38:06;13.40;91.60
18712;DHT22;9485;49.386;8.674;2023-12-14T13:43:28;13.50;91.50
18712;DHT22;9485;49.386;8.674;2023-12-14T13:48:49;13.60;91.30
18712;DHT22;9485;49.386;8.674;2023-12-14T13:54:09;13.50;91.40
18712;DHT22;9485;49.386;8.674;2023-12-14T13:59:31;13.50;91.30
18712;DHT22;9485;49.386;8.674;2023-12-14T14:04:52;13.50;91.00
18712;DHT22;9485;49.386;8.674;2023-12-14T14:10:13;13.50;91.10
18712;DHT22;9485;49.386;8.674;2023-12-14T14:15:35;13.40;91.10
18712;DHT22;9485;49.386;8.674;2023-12-14T14:20:55;13.40;90.90
18712;DHT22;9485;49.386;8.674;2023-12-14T14:26:16;13.30;90.90
18712;DHT22;9485;49.386;8.674;2023-12-14T14:31:38;13.20;90.80
18712;DHT22;9485;49.386;8.674;2023-12-14T14:36:58;13.20;90.80
18712;DHT22;9485;49.386;8.674;2023-12-14T14:42:19;13.10;90.90
18712;DHT22;9485;49.386;8.674;2023-12-14T14:47:41;13.10;91.00
18712;DHT22;9485;49.386;8.674;2023-12-14T14:53:02;13.10;90.90
18712;DHT22;9485;49.386;8.674;2023-12-14T14:58:23;13.00;90.90
18712;DHT22;9485;49.386;8.674;2023-12-14T15:03:45;12.90;90.80
18712;DHT22;9485;49.386;8.674;2023-12-14T15:09:06;12.90;90.80
18712;DHT22;9485;49.386;8.674;2023-12-14T15:14:27;12.80;90.80
18712;DHT22;9485;49.386;8.674;2023-12-14T15:19:49;12.70;90.70
18712;DHT22;9485;49.386;8.674;2023-12-14T15:25:10;12.60;90.70
18712;DHT22;9485;49.386;8.674;2023-12-14T15:30:32;12.40;90.70
18712;DHT22;9485;49.386;8.674;2023-12-14T15:35:54;12.40;90.80
18712;DHT22;9485;49.386;8.674;2023-12-14T15:41:15;12.30;90.80
18712;DHT22;9485;49.386;8.674;2023-12-14T15:46:36;12.20;90.80
18712;DHT22;9485;49.386;8.674;2023-12-14T15:51:58;12.10;90.90
18712;DHT22;9485;49.386;8.674;2023-12-14T15:57:19;12.10;90.90
18712;DHT22;9485;49.386;8.674;2023-12-14T16:02:39;12.00;91.00
18712;DHT22;9485;49.386;8.674;2023-12-14T16:08:01;12.00;91.00
18712;DHT22;9485;49.386;8.674;2023-12-14T16:13:21;11.90;91.00
18712;DHT22;9485;49.386;8.674;2023-12-14T16:18:42;11.90;91.00
18712;DHT22;9485;49.386;8.674;2023-12-14T16:24:05;11.80;91.00
18712;DHT22;9485;49.386;8.674;2023-12-14T16:29:26;11.80;91.10
18712;DHT22;9485;49.386;8.674;2023-12-14T16:34:47;11.80;91.20
18712;DHT22;9485;49.386;8.674;2023-12-14T16:40:09;11.80;91.10
18712;DHT22;9485;49.386;8.674;2023-12-14T16:45:30;11.70;91.10
18712;DHT22;9485;49.386;8.674;2023-12-14T16:50:51;11.70;91.10
18712;DHT22;9485;49.386;8.674;2023-12-14T16:56:16;11.70;91.00
18712;DHT22;9485;49.386;8.674;2023-12-14T17:01:37;11.60;91.00
18712;DHT22;9485;49.386;8.674;2023-12-14T17:06:58;11.60;91.00
18712;DHT22;9485;49.386;8.674;2023-12-14T17:12:20;11.60;91.10
18712;DHT22;9485;49.386;8.674;2023-12-14T17:17:41;11.50;91.00
18712;DHT22;9485;49.386;8.674;2023-12-14T17:23:02;11.50;91.00
18712;DHT22;9485;49.386;8.674;2023-12-14T17:28:25;11.50;91.10
18712;DHT22;9485;49.386;8.674;2023-12-14T17:33:46;11.50;91.10
18712;DHT22;9485;49.386;8.674;2023-12-14T17:39:08;11.50;91.20
18712;DHT22;9485;49.386;8.674;2023-12-14T17:44:30;11.50;91.00
18712;DHT22;9485;49.386;8.674;2023-12-14T17:49:50;11.50;90.90
18712;DHT22;9485;49.386;8.674;2023-12-14T17:55:11;11.40;90.90
18712;DHT22;9485;49.386;8.674;2023-12-14T18:00:33;11.40;90.90
18712;DHT22;9485;49.386;8.674;2023-12-14T18:05:54;11.40;90.90
18712;DHT22;9485;49.386;8.674;2023-12-14T18:11:14;11.40;91.00
18712;DHT22;9485;49.386;8.674;2023-12-14T18:16:36;11.40;91.00
18712;DHT22;9485;49.386;8.674;2023-12-14T18:21:59;11.30;90.90
18712;DHT22;9485;49.386;8.674;2023-12-14T18:27:19;11.30;90.70
18712;DHT22;9485;49.386;8.674;2023-12-14T18:32:41;11.30;90.90
18712;DHT22;9485;49.386;8.674;2023-12-14T18:38:02;11.30;90.80
18712;DHT22;9485;49.386;8.674;2023-12-14T18:43:24;11.30;90.70
18712;DHT22;9485;49.386;8.674;2023-12-14T18:48:46;11.30;90.70
18712;DHT22;9485;49.386;8.674;2023-12-14T18:54:06;11.20;90.70
18712;DHT22;9485;49.386;8.674;2023-12-14T18:59:29;11.30;90.60
18712;DHT22;9485;49.386;8.674;2023-12-14T19:04:51;11.30;90.80
18712;DHT22;9485;49.386;8.674;2023-12-14T19:10:12;11.30;90.70
18712;DHT22;9485;49.386;8.674;2023-12-14T19:15:33;11.30;90.70
18712;DHT22;9485;49.386;8.674;2023-12-14T19:20:55;11.20;90.60
18712;DHT22;9485;49.386;8.674;2023-12-14T19:26:16;11.20;90.50
18712;DHT22;9485;49.386;8.674;2023-12-14T19:31:37;11.20;90.50
18712;DHT22;9485;49.386;8.674;2023-12-14T19:36:59;11.20;90.20
18712;DHT22;9485;49.386;8.674;2023-12-14T19:42:20;11.20;90.40
18712;DHT22;9485;49.386;8.674;2023-12-14T19:47:40;11.10;90.30
18712;DHT22;9485;49.386;8.674;2023-12-14T19:53:02;11.10;90.10
18712;DHT22;9485;49.386;8.674;2023-12-14T19:58:23;11.10;90.10
18712;DHT22;9485;49.386;8.674;2023-12-14T20:03:44;11.10;90.30
18712;DHT22;9485;49.386;8.674;2023-12-14T20:09:06;11.10;90.20
18712;DHT22;9485;49.386;8.674;2023-12-14T20:14:26;11.00;90.10
18712;DHT22;9485;49.386;8.674;2023-12-14T20:19:47;10.90;90.00
18712;DHT22;9485;49.386;8.674;2023-12-14T20:25:09;10.90;89.90
18712;DHT22;9485;49.386;8.674;2023-12-14T20:30:31;10.80;89.90
18712;DHT22;9485;49.386;8.674;2023-12-14T20:35:51;10.70;90.00
18712;DHT22;9485;49.386;8.674;2023-12-14T20:41:14;10.60;90.00
18712;DHT22;9485;49.386;8.674;2023-12-14T20:46:35;10.60;90.10
18712;DHT22;9485;49.386;8.674;2023-12-14T20:51:56;10.50;90.20
18712;DHT22;9485;49.386;8.674;2023-12-14T20:57:19;10.50;90.40
18712;DHT22;9485;49.386;8.674;2023-12-14T21:02:40;10.60;90.60
18712;DHT22;9485;49.386;8.674;2023-12-14T21:08:01;10.60;90.70
18712;DHT22;9485;49.386;8.674;2023-12-14T21:13:23;10.70;90.70
18712;DHT22;9485;49.386;8.674;2023-12-14T21:18:44;10.70;90.80
18712;DHT22;9485;49.386;8.674;2023-12-14T21:24:05;10.70;90.80
18712;DHT22;9485;49.386;8.674;2023-12-14T21:29:27;10.80;90.70
18712;DHT22;9485;49.386;8.674;2023-12-14T21:34:48;10.80;90.70
18712;DHT22;9485;49.386;8.674;2023-12-14T21:40:09;10.80;90.70
18712;DHT22;9485;49.386;8.674;2023-12-14T21:45:32;10.80;90.70
18712;DHT22;9485;49.386;8.674;2023-12-14T21:50:52;10.80;90.60
18712;DHT22;9485;49.386;8.674;2023-12-14T21:56:13;10.80;90.70
18712;DHT22;9485;49.386;8.674;2023-12-14T22:01:35;10.80;90.70
18712;DHT22;9485;49.386;8.674;2023-12-14T22:06:56;10.80;90.60
18712;DHT22;9485;49.386;8.674;2023-12-14T22:12:17;10.80;90.70
18712;DHT22;9485;49.386;8.674;2023-12-14T22:17:39;10.80;90.70
18712;DHT22;9485;49.386;8.674;2023-12-14T22:23:00;10.70;90.70
18712;DHT22;9485;49.386;8.674;2023-12-14T22:28:20;10.70;90.70
18712;DHT22;9485;49.386;8.674;2023-12-14T22:33:42;10.70;90.70
18712;DHT22;9485;49.386;8.674;2023-12-14T22:39:03;10.70;90.70
18712;DHT22;9485;49.386;8.674;2023-12-14T22:44:24;10.70;90.80
18712;DHT22;9485;49.386;8.674;2023-12-14T22:49:46;10.70;90.80
18712;DHT22;9485;49.386;8.674;2023-12-14T22:55:07;10.70;90.80
18712;DHT22;9485;49.386;8.674;2023-12-14T23:00:30;10.70;90.80
18712;DHT22;9485;49.386;8.674;2023-12-14T23:05:57;10.70;90.80
18712;DHT22;9485;49.386;8.674;2023-12-14T23:11:18;10.70;90.80
18712;DHT22;9485;49.386;8.674;2023-12-14T23:16:43;10.70;90.70
18712;DHT22;9485;49.386;8.674;2023-12-14T23:22:05;10.70;90.70
18712;DHT22;9485;49.386;8.674;2023-12-14T23:27:26;10.70;90.80
18712;DHT22;9485;49.386;8.674;2023-12-14T23:32:46;10.60;91.00
18712;DHT22;9485;49.386;8.674;2023-12-14T23:38:08;10.60;90.70
18712;DHT22;9485;49.386;8.674;2023-12-14T23:43:29;10.60;90.70
18712;DHT22;9485;49.386;8.674;2023-12-14T23:48:51;10.50;90.70
18712;DHT22;9485;49.386;8.674;2023-12-14T23:54:14;10.50;90.80
18712;DHT22;9485;49.386;8.674;2023-12-14T23:59:34;10.50;91.20
